Time;durP1;ratioP1;P1;durP2;ratioP2;P2;SDS_P1;SDS_P2;PMS_P1;PMS_P2;Temp;Humidity;BMP_temperature;BMP_pressure;BME280_temperature;BME280_humidity;BME280_pressure;Samples;Min_cycle;Max_cycle;Signal;HPM_P1;HPM_P2
2021/05/23 00:02:25;;;;;;;2.83;2.55;;;14.70;81.00;;;;;;5050595;28;20184;-73
2021/05/23 00:04:51;;;;;;;2.97;2.47;;;14.70;80.90;;;;;;5052497;28;20183;-73
2021/05/23 00:07:21;;;;;;;5.93;2.50;;;14.70;80.90;;;;;;5046778;28;20341;-73
2021/05/23 00:09:47;;;;;;;5.15;2.80;;;14.70;80.90;;;;;;5041904;28;20179;-73
2021/05/23 00:12:16;;;;;;;2.67;2.47;;;14.70;81.10;;;;;;5049434;28;20193;-73
2021/05/23 00:14:41;;;;;;;3.22;2.50;;;14.70;81.60;;;;;;5053022;28;20277;-72
2021/05/23 00:17:07;;;;;;;3.47;2.15;;;14.60;81.50;;;;;;5049744;28;20286;-74
2021/05/23 00:19:33;;;;;;;2.20;2.15;;;14.60;81.60;;;;;;5053389;28;20172;-72
2021/05/23 00:21:59;;;;;;;2.72;2.40;;;14.60;81.50;;;;;;5049807;28;20180;-72
2021/05/23 00:24:25;;;;;;;2.58;2.33;;;14.60;81.70;;;;;;5049079;28;20191;-73
2021/05/23 00:26:52;;;;;;;4.80;3.15;;;14.50;81.60;;;;;;5050832;28;20187;-72
2021/05/23 00:29:18;;;;;;;2.90;2.70;;;14.50;81.80;;;;;;5045705;28;20207;-72
2021/05/23 00:31:44;;;;;;;2.53;2.42;;;14.50;81.90;;;;;;5048408;28;20273;-72
2021/05/23 00:34:10;;;;;;;2.20;2.10;;;14.40;81.90;;;;;;5050320;28;20258;-72
2021/05/23 00:36:36;;;;;;;2.20;2.10;;;14.40;82.10;;;;;;5058836;28;20736;-73
2021/05/23 00:39:03;;;;;;;2.70;2.22;;;14.40;82.20;;;;;;5043836;28;20175;-74
2021/05/23 00:41:28;;;;;;;2.50;2.40;;;14.40;82.40;;;;;;5049971;28;20191;-74
2021/05/23 00:43:54;;;;;;;2.65;2.20;;;14.40;82.80;;;;;;5048914;28;20175;-74
2021/05/23 00:46:20;;;;;;;2.88;2.47;;;14.30;83.30;;;;;;5046317;28;20176;-74
2021/05/23 00:48:46;;;;;;;4.32;2.40;;;14.30;83.20;;;;;;5048226;28;20183;-74
2021/05/23 00:51:11;;;;;;;2.38;2.28;;;14.30;83.30;;;;;;5054014;28;20254;-74
2021/05/23 00:53:37;;;;;;;2.58;2.38;;;14.20;83.30;;;;;;5053216;28;20278;-74
2021/05/23 00:56:03;;;;;;;3.40;2.53;;;14.20;83.20;;;;;;5053310;28;20178;-73
2021/05/23 00:58:29;;;;;;;1.70;1.70;;;14.10;83.30;;;;;;5051050;28;20302;-74
2021/05/23 01:00:54;;;;;;;5.03;1.83;;;14.10;83.30;;;;;;5048858;28;20274;-74
2021/05/23 01:03:29;;;;;;;2.38;2.25;;;14.10;83.30;;;;;;5051520;28;20267;-74
2021/05/23 01:05:59;;;;;;;2.00;1.98;;;14.10;83.40;;;;;;5043755;28;20175;-74
2021/05/23 01:08:25;;;;;;;6.93;2.45;;;14.10;83.60;;;;;;5045944;28;20206;-74
2021/05/23 01:11:07;;;;;;;2.08;1.98;;;14.10;83.70;;;;;;5051039;28;20668;-74
2021/05/23 01:13:39;;;;;;;2.45;2.25;;;14.00;83.60;;;;;;5048616;28;20241;-74
2021/05/23 01:16:21;;;;;;;7.63;2.45;;;14.00;84.00;;;;;;5056939;28;20183;-74
2021/05/23 01:18:53;;;;;;;2.80;2.65;;;14.00;83.90;;;;;;5052951;28;20189;-74
2021/05/23 01:21:21;;;;;;;2.55;2.35;;;13.90;83.90;;;;;;5050015;28;20186;-74
2021/05/23 01:23:53;;;;;;;2.20;2.15;;;13.80;84.50;;;;;;5046402;28;20188;-74
2021/05/23 01:26:20;;;;;;;1.70;1.70;;;13.80;84.20;;;;;;5047877;28;20183;-74
2021/05/23 01:28:54;;;;;;;1.73;1.63;;;13.80;84.30;;;;;;5048325;28;20188;-74
2021/05/23 01:31:21;;;;;;;4.85;1.90;;;13.70;84.10;;;;;;5049840;28;20198;-74
2021/05/23 01:33:56;;;;;;;2.03;2.03;;;13.70;84.10;;;;;;5047603;28;20187;-74
2021/05/23 01:36:24;;;;;;;2.05;1.95;;;13.70;84.00;;;;;;5053989;28;20193;-74
2021/05/23 01:38:50;;;;;;;2.08;1.90;;;13.70;84.50;;;;;;5041581;28;20171;-74
2021/05/23 01:41:17;;;;;;;2.05;1.92;;;13.70;84.70;;;;;;5047469;28;20203;-74
2021/05/23 01:43:43;;;;;;;2.67;1.60;;;13.60;84.90;;;;;;5043426;28;20832;-73
2021/05/23 01:46:10;;;;;;;2.13;2.03;;;13.60;84.90;;;;;;5047487;28;20190;-73
2021/05/23 01:48:37;;;;;;;2.53;2.42;;;13.60;84.80;;;;;;5047740;28;20179;-74
2021/05/23 01:51:05;;;;;;;2.08;1.90;;;13.60;84.80;;;;;;5049741;28;20636;-74
2021/05/23 01:53:31;;;;;;;1.70;1.70;;;13.60;85.10;;;;;;5047429;28;20258;-74
2021/05/23 01:55:57;;;;;;;2.00;1.42;;;13.60;85.10;;;;;;5053537;28;20188;-73
2021/05/23 01:58:23;;;;;;;3.05;1.90;;;13.50;85.20;;;;;;5047868;28;20225;-75
2021/05/23 02:00:51;;;;;;;2.95;2.22;;;13.50;85.60;;;;;;5045474;28;20183;-75
2021/05/23 02:03:19;;;;;;;3.08;2.03;;;13.50;85.70;;;;;;5043022;28;20690;-74
2021/05/23 02:05:50;;;;;;;5.70;2.50;;;13.40;85.80;;;;;;5040476;28;20180;-75
2021/05/23 02:08:18;;;;;;;2.97;1.90;;;13.40;85.90;;;;;;5059059;28;20256;-74
2021/05/23 02:10:45;;;;;;;2.75;2.65;;;13.40;85.80;;;;;;5045747;28;20798;-75
2021/05/23 02:13:11;;;;;;;3.67;2.72;;;13.40;86.00;;;;;;5049762;28;20188;-75
2021/05/23 02:15:37;;;;;;;3.67;2.95;;;13.40;86.00;;;;;;5045699;28;20203;-75
2021/05/23 02:18:04;;;;;;;3.22;3.08;;;13.40;85.80;;;;;;5053565;28;20537;-75
2021/05/23 02:20:31;;;;;;;3.80;3.55;;;13.40;85.90;;;;;;5047271;28;20564;-75
2021/05/23 02:22:59;;;;;;;4.85;4.03;;;13.30;85.90;;;;;;5048565;28;20185;-75
2021/05/23 02:25:27;;;;;;;3.83;2.90;;;13.30;86.00;;;;;;5049889;28;20346;-75
2021/05/23 02:27:56;;;;;;;3.72;3.40;;;13.20;85.70;;;;;;5049321;28;20867;-75
2021/05/23 02:30:23;;;;;;;5.22;3.20;;;13.20;85.80;;;;;;5045286;28;21582;-75
2021/05/23 02:32:50;;;;;;;5.60;3.00;;;13.30;86.00;;;;;;5045966;28;20270;-75
2021/05/23 02:35:18;;;;;;;4.97;2.90;;;13.20;85.70;;;;;;5053097;28;20579;-75
2021/05/23 02:37:44;;;;;;;2.97;2.78;;;13.20;85.80;;;;;;5047785;28;20435;-75
2021/05/23 02:40:13;;;;;;;3.55;3.05;;;13.10;86.30;;;;;;5048020;28;20187;-74
2021/05/23 02:42:40;;;;;;;4.50;3.00;;;13.10;86.10;;;;;;5049450;28;20589;-75
2021/05/23 02:45:08;;;;;;;3.28;2.83;;;13.10;86.40;;;;;;5046498;28;20191;-74
2021/05/23 02:47:35;;;;;;;5.38;2.67;;;13.10;86.20;;;;;;5042656;28;20254;-75
2021/05/23 02:50:02;;;;;;;3.00;2.55;;;13.10;86.40;;;;;;5048574;28;20190;-75
2021/05/23 02:52:28;;;;;;;2.38;2.28;;;13.00;86.90;;;;;;5046821;28;20190;-75
2021/05/23 02:54:53;;;;;;;2.75;2.55;;;13.00;87.10;;;;;;5052065;28;20183;-75
2021/05/23 02:57:19;;;;;;;5.82;2.63;;;13.00;87.20;;;;;;5048252;28;20240;-75
2021/05/23 02:59:45;;;;;;;5.43;2.65;;;12.90;87.20;;;;;;5052650;28;20245;-75
2021/05/23 03:02:11;;;;;;;3.53;2.47;;;12.90;87.30;;;;;;5047261;28;20176;-75
2021/05/23 03:04:37;;;;;;;2.10;1.98;;;12.90;87.30;;;;;;5045977;28;20190;-73
2021/05/23 03:07:04;;;;;;;2.65;2.42;;;12.80;87.30;;;;;;5048290;28;20663;-74
2021/05/23 03:09:29;;;;;;;2.15;2.05;;;12.80;87.30;;;;;;5044697;28;20176;-75
2021/05/23 03:11:55;;;;;;;2.30;2.00;;;12.80;87.40;;;;;;5052236;28;20186;-75
2021/05/23 03:14:21;;;;;;;3.60;2.00;;;12.80;87.30;;;;;;5048598;28;20191;-75
2021/05/23 03:16:47;;;;;;;2.38;2.20;;;12.80;87.30;;;;;;5046565;28;20570;-75
2021/05/23 03:19:13;;;;;;;2.33;1.80;;;12.80;87.60;;;;;;5046539;28;20245;-75
2021/05/23 03:21:39;;;;;;;4.28;2.20;;;12.80;87.90;;;;;;5046273;28;20794;-75
2021/05/23 03:24:05;;;;;;;4.88;2.55;;;12.80;88.00;;;;;;5043905;28;20984;-75
2021/05/23 03:26:32;;;;;;;2.28;2.08;;;12.80;87.80;;;;;;5055409;28;20248;-75
2021/05/23 03:28:57;;;;;;;1.63;1.52;;;12.80;87.60;;;;;;5043401;28;20586;-75
2021/05/23 03:31:23;;;;;;;5.53;2.15;;;12.80;87.50;;;;;;5047550;28;20187;-75
2021/05/23 03:33:49;;;;;;;3.25;1.85;;;12.80;87.30;;;;;;5046821;28;20208;-75
2021/05/23 03:36:15;;;;;;;2.00;1.90;;;12.80;87.40;;;;;;5042735;28;20619;-75
2021/05/23 03:38:43;;;;;;;2.03;1.92;;;12.80;87.60;;;;;;5050528;28;20218;-74
2021/05/23 03:41:09;;;;;;;2.13;2.03;;;12.80;87.50;;;;;;5049026;28;20683;-75
2021/05/23 03:43:35;;;;;;;3.13;1.85;;;12.80;87.80;;;;;;5045883;28;20179;-75
2021/05/23 03:46:01;;;;;;;2.28;2.08;;;12.80;87.80;;;;;;5048848;28;20187;-73
2021/05/23 03:48:26;;;;;;;1.63;1.63;;;12.80;88.10;;;;;;5050672;28;20860;-74
2021/05/23 03:50:52;;;;;;;1.80;1.67;;;12.90;87.70;;;;;;5050412;28;20196;-76
2021/05/23 03:53:18;;;;;;;1.98;1.80;;;12.80;87.50;;;;;;5054910;28;20179;-73
2021/05/23 03:55:43;;;;;;;1.63;1.52;;;12.90;87.40;;;;;;5051391;28;20183;-74
2021/05/23 03:58:09;;;;;;;3.35;2.08;;;12.90;87.30;;;;;;5046569;28;20827;-76
2021/05/23 04:00:36;;;;;;;2.03;1.92;;;12.90;87.30;;;;;;5049050;28;20188;-75
2021/05/23 04:03:02;;;;;;;1.70;1.63;;;12.90;87.40;;;;;;5049992;28;20263;-76
2021/05/23 04:05:29;;;;;;;4.10;1.85;;;13.00;87.40;;;;;;5044185;28;20302;-74
2021/05/23 04:07:57;;;;;;;2.42;2.22;;;13.00;87.40;;;;;;5044967;28;20195;-75
2021/05/23 04:10:28;;;;;;;1.85;1.80;;;13.00;87.70;;;;;;5047396;28;20184;-74
2021/05/23 04:12:55;;;;;;;2.55;2.35;;;13.10;87.80;;;;;;5052911;28;20190;-74
2021/05/23 04:15:21;;;;;;;2.22;2.20;;;13.10;87.90;;;;;;5049828;28;20199;-74
2021/05/23 04:17:48;;;;;;;2.88;2.60;;;13.10;88.00;;;;;;5049167;28;20682;-73
2021/05/23 04:20:16;;;;;;;2.10;2.00;;;13.20;87.90;;;;;;5042656;28;21161;-75
2021/05/23 04:22:43;;;;;;;2.45;2.35;;;13.20;87.60;;;;;;5049082;28;20210;-74
2021/05/23 04:25:12;;;;;;;2.78;2.67;;;13.20;87.90;;;;;;5049975;28;20258;-75
2021/05/23 04:27:42;;;;;;;2.08;2.08;;;13.30;87.60;;;;;;5047183;28;20188;-75
2021/05/23 04:30:09;;;;;;;2.30;2.20;;;13.30;87.60;;;;;;5047834;28;20245;-75
2021/05/23 04:32:35;;;;;;;2.30;2.20;;;13.40;87.50;;;;;;5053040;28;20338;-75
2021/05/23 04:35:03;;;;;;;2.45;2.25;;;13.40;87.50;;;;;;5050402;28;20678;-74
2021/05/23 04:37:29;;;;;;;2.67;2.47;;;13.40;87.50;;;;;;5050913;28;20215;-75
2021/05/23 04:39:54;;;;;;;2.55;2.45;;;13.50;87.30;;;;;;5050833;28;20222;-75
2021/05/23 04:42:20;;;;;;;2.35;2.15;;;13.50;87.30;;;;;;5053938;28;20187;-75
2021/05/23 04:44:46;;;;;;;2.13;2.03;;;13.60;87.30;;;;;;5046656;28;20192;-74
2021/05/23 04:47:11;;;;;;;2.45;2.10;;;13.60;87.20;;;;;;5043162;28;20198;-74
2021/05/23 04:49:40;;;;;;;3.67;2.22;;;13.70;87.30;;;;;;5052256;28;20184;-75
2021/05/23 04:52:07;;;;;;;3.05;2.83;;;13.70;87.40;;;;;;5054872;28;20187;-75
2021/05/23 04:54:34;;;;;;;4.40;2.95;;;13.80;87.20;;;;;;5050165;28;20186;-74
2021/05/23 04:57:00;;;;;;;2.85;2.65;;;13.90;86.60;;;;;;5051656;28;20219;-74
2021/05/23 04:59:26;;;;;;;3.10;2.88;;;13.90;86.30;;;;;;5049215;28;20256;-75
2021/05/23 05:01:52;;;;;;;2.95;2.85;;;14.00;86.50;;;;;;5047532;28;20629;-75
2021/05/23 05:04:18;;;;;;;3.92;2.50;;;14.00;86.40;;;;;;5052313;28;20202;-74
2021/05/23 05:06:43;;;;;;;3.30;2.97;;;14.10;85.90;;;;;;5041012;28;20192;-75
2021/05/23 05:09:09;;;;;;;3.30;3.00;;;14.10;85.30;;;;;;5053818;28;20267;-74
2021/05/23 05:11:35;;;;;;;3.05;2.88;;;14.20;85.10;;;;;;5048675;28;20180;-74
2021/05/23 05:14:01;;;;;;;3.60;2.40;;;14.20;85.20;;;;;;5047063;28;20202;-75
2021/05/23 05:16:27;;;;;;;3.90;3.13;;;14.30;85.10;;;;;;5058990;28;20195;-75
2021/05/23 05:18:54;;;;;;;2.53;2.40;;;14.30;85.00;;;;;;5048113;28;20675;-74
2021/05/23 05:21:20;;;;;;;2.00;1.90;;;14.40;84.90;;;;;;5048701;28;20174;-75
2021/05/23 05:23:45;;;;;;;2.70;2.40;;;14.50;84.70;;;;;;5048395;28;20175;-74
2021/05/23 05:26:11;;;;;;;3.28;3.08;;;14.60;84.60;;;;;;5044015;28;20180;-74
2021/05/23 05:28:37;;;;;;;2.95;2.78;;;14.60;84.10;;;;;;5049463;28;20632;-74
2021/05/23 05:31:03;;;;;;;2.75;2.45;;;14.70;83.90;;;;;;5057385;28;20190;-75
2021/05/23 05:33:29;;;;;;;2.60;2.50;;;14.80;83.80;;;;;;5048278;28;20180;-74
2021/05/23 05:35:55;;;;;;;1.98;1.98;;;14.90;83.80;;;;;;5053105;28;20229;-71
2021/05/23 05:38:20;;;;;;;2.38;2.22;;;15.00;83.60;;;;;;5050555;28;20222;-71
2021/05/23 05:40:46;;;;;;;4.95;2.97;;;15.00;83.40;;;;;;5049431;28;20202;-74
2021/05/23 05:43:12;;;;;;;4.28;2.65;;;15.10;83.00;;;;;;5052381;28;20183;-72
2021/05/23 05:45:38;;;;;;;2.50;2.40;;;15.20;82.60;;;;;;5052041;28;20180;-73
2021/05/23 05:48:04;;;;;;;3.03;2.83;;;15.30;82.40;;;;;;5049457;28;20195;-73
2021/05/23 05:50:30;;;;;;;2.58;2.47;;;15.40;82.40;;;;;;5045649;28;20207;-73
2021/05/23 05:52:55;;;;;;;2.20;2.10;;;15.60;82.40;;;;;;5046706;28;20210;-73
2021/05/23 05:55:21;;;;;;;2.42;2.33;;;15.70;82.00;;;;;;5052038;28;20405;-73
2021/05/23 05:57:47;;;;;;;5.47;2.45;;;15.80;81.90;;;;;;5047199;28;20269;-72
2021/05/23 06:00:13;;;;;;;2.47;2.38;;;15.90;81.60;;;;;;5047799;28;20190;-71
2021/05/23 06:02:39;;;;;;;2.55;2.45;;;16.00;81.30;;;;;;5043406;28;20211;-73
2021/05/23 06:05:06;;;;;;;2.90;2.75;;;16.10;80.40;;;;;;5043125;28;20180;-71
2021/05/23 06:07:32;;;;;;;8.80;2.80;;;16.30;80.30;;;;;;5039545;28;20211;-72
2021/05/23 06:09:58;;;;;;;2.63;2.53;;;16.40;80.10;;;;;;5048581;28;20228;-72
2021/05/23 06:12:23;;;;;;;5.03;2.92;;;16.50;80.10;;;;;;5057687;28;20182;-72
2021/05/23 06:17:34;;;;;;;2.50;2.40;;;16.90;79.70;;;;;;5052542;28;20214;-72
2021/05/23 06:20:01;;;;;;;2.67;2.55;;;17.10;79.50;;;;;;5047679;28;20211;-72
2021/05/23 06:22:27;;;;;;;3.22;3.08;;;17.20;78.90;;;;;;5044821;28;20183;-72
2021/05/23 06:24:52;;;;;;;2.75;2.55;;;17.40;77.90;;;;;;5048920;28;20645;-72
2021/05/23 06:27:18;;;;;;;2.72;2.60;;;17.50;77.30;;;;;;5046078;28;20687;-73
2021/05/23 06:29:45;;;;;;;3.97;2.38;;;17.70;77.60;;;;;;5045893;28;20226;-72
2021/05/23 06:32:12;;;;;;;2.70;2.58;;;17.80;77.20;;;;;;5046591;28;20192;-74
2021/05/23 06:34:38;;;;;;;6.72;2.75;;;18.00;77.00;;;;;;5042566;28;20210;-74
2021/05/23 06:37:04;;;;;;;2.45;2.35;;;18.10;75.40;;;;;;5045844;28;20242;-73
2021/05/23 06:39:30;;;;;;;3.75;2.90;;;18.20;75.60;;;;;;5038498;28;20265;-72
2021/05/23 06:41:56;;;;;;;2.70;2.50;;;18.40;74.30;;;;;;5030097;28;20207;-70
2021/05/23 06:44:21;;;;;;;6.35;3.42;;;18.40;74.70;;;;;;5031104;28;20195;-70
2021/05/23 06:46:47;;;;;;;3.00;2.80;;;18.50;74.10;;;;;;5030633;28;20184;-70
2021/05/23 06:49:13;;;;;;;5.13;2.40;;;18.60;74.10;;;;;;5030945;28;20217;-70
2021/05/23 06:51:39;;;;;;;2.63;2.15;;;18.70;73.40;;;;;;5030284;28;20269;-68
2021/05/23 06:54:05;;;;;;;2.90;2.80;;;18.80;74.20;;;;;;5030514;28;20198;-71
2021/05/23 06:56:31;;;;;;;3.38;3.08;;;18.90;74.10;;;;;;5039006;28;20183;-70
2021/05/23 06:58:57;;;;;;;2.97;2.78;;;19.00;73.70;;;;;;5045277;28;20292;-71
2021/05/23 07:01:22;;;;;;;5.18;2.95;;;19.10;73.50;;;;;;5034967;28;20278;-71
2021/05/23 07:03:48;;;;;;;2.85;2.75;;;19.20;72.30;;;;;;5049753;28;20180;-71
2021/05/23 07:06:14;;;;;;;3.47;2.25;;;19.20;72.80;;;;;;5049739;28;20228;-71
2021/05/23 07:08:40;;;;;;;2.30;2.30;;;19.30;73.30;;;;;;5047922;28;20872;-71
2021/05/23 07:11:06;;;;;;;3.05;2.30;;;19.40;73.10;;;;;;5038212;28;20194;-69
2021/05/23 07:13:31;;;;;;;2.22;2.13;;;19.40;72.60;;;;;;5048126;28;20626;-71
2021/05/23 07:15:57;;;;;;;4.43;2.88;;;19.50;72.40;;;;;;5050274;28;20188;-71
2021/05/23 07:18:23;;;;;;;3.10;3.00;;;19.60;72.30;;;;;;5045288;28;20233;-71
2021/05/23 07:20:49;;;;;;;3.92;2.88;;;19.60;72.30;;;;;;5052359;28;20183;-71
2021/05/23 07:23:14;;;;;;;2.80;2.70;;;19.70;72.20;;;;;;5042563;28;20176;-71
2021/05/23 07:25:41;;;;;;;2.40;2.13;;;19.70;72.40;;;;;;5037194;28;20723;-72
2021/05/23 07:28:07;;;;;;;2.45;2.40;;;19.80;72.50;;;;;;5042483;28;20276;-72
2021/05/23 07:30:33;;;;;;;2.45;2.08;;;19.90;72.50;;;;;;5043769;28;20286;-72
2021/05/23 07:32:59;;;;;;;1.95;1.92;;;20.00;71.40;;;;;;5045122;28;20184;-71
2021/05/23 07:35:25;;;;;;;2.13;1.92;;;20.00;71.20;;;;;;5042840;28;20178;-71
2021/05/23 07:37:51;;;;;;;1.80;1.70;;;20.00;71.10;;;;;;5051460;28;20224;-72
2021/05/23 07:40:17;;;;;;;1.52;1.52;;;20.10;71.50;;;;;;5047415;28;20211;-74
2021/05/23 07:42:44;;;;;;;2.10;2.00;;;20.20;72.00;;;;;;5049152;28;20271;-73
2021/05/23 07:45:10;;;;;;;1.83;1.80;;;20.20;72.00;;;;;;5048588;28;20250;-75
2021/05/23 07:47:36;;;;;;;1.77;1.67;;;20.20;71.50;;;;;;5049972;28;20187;-71
2021/05/23 07:50:04;;;;;;;1.90;1.85;;;20.30;71.50;;;;;;5043370;28;20179;-73
2021/05/23 07:52:29;;;;;;;2.08;1.95;;;20.30;71.60;;;;;;5048034;28;20183;-71
2021/05/23 07:54:56;;;;;;;2.10;2.00;;;20.40;71.30;;;;;;5047488;28;20176;-72
2021/05/23 07:57:22;;;;;;;2.53;1.77;;;20.40;70.80;;;;;;5053157;28;20606;-72
2021/05/23 07:59:48;;;;;;;2.30;2.20;;;20.40;70.90;;;;;;5046504;28;20183;-73
2021/05/23 08:02:13;;;;;;;1.73;1.63;;;20.40;70.40;;;;;;5048581;28;20194;-73
2021/05/23 08:04:39;;;;;;;2.75;1.70;;;20.40;70.90;;;;;;5045897;28;20191;-73
2021/05/23 08:07:06;;;;;;;2.05;1.95;;;20.40;71.20;;;;;;5047985;28;20199;-71
2021/05/23 08:12:17;;;;;;;2.15;2.05;;;20.30;70.90;;;;;;5041893;28;20199;-74
2021/05/23 08:14:43;;;;;;;1.42;1.42;;;20.20;70.70;;;;;;5047140;28;20188;-74
2021/05/23 08:17:09;;;;;;;1.55;1.55;;;20.20;72.00;;;;;;5050336;28;20736;-74
2021/05/23 08:19:35;;;;;;;1.98;1.83;;;20.20;70.50;;;;;;5052239;28;20302;-72
2021/05/23 08:22:00;;;;;;;1.98;1.90;;;20.20;70.50;;;;;;5051374;28;20806;-72
2021/05/23 08:24:30;;;;;;;1.90;1.80;;;20.20;70.90;;;;;;5051020;28;20255;-72
2021/05/23 08:26:55;;;;;;;1.23;1.23;;;20.30;70.20;;;;;;5040963;28;20580;-72
2021/05/23 08:29:21;;;;;;;1.60;1.52;;;20.30;70.60;;;;;;5050405;28;20179;-72
2021/05/23 08:31:47;;;;;;;1.17;1.17;;;20.40;71.00;;;;;;5045790;28;20267;-72
2021/05/23 08:34:13;;;;;;;1.67;1.58;;;20.40;71.20;;;;;;5049601;28;20249;-71
2021/05/23 08:36:38;;;;;;;1.55;1.55;;;20.50;71.20;;;;;;5052364;28;20208;-71
2021/05/23 08:39:04;;;;;;;1.83;1.83;;;20.60;71.10;;;;;;5050131;28;20257;-72
2021/05/23 08:41:30;;;;;;;1.92;1.80;;;20.60;71.10;;;;;;5062245;28;20267;-72
2021/05/23 08:43:56;;;;;;;1.48;1.48;;;20.70;71.30;;;;;;5047102;28;20657;-71
2021/05/23 08:46:26;;;;;;;1.80;1.70;;;20.80;69.20;;;;;;5049040;28;20176;-72
2021/05/23 08:48:52;;;;;;;1.35;1.30;;;20.90;68.40;;;;;;5052168;28;20192;-71
2021/05/23 08:51:18;;;;;;;1.38;1.38;;;21.00;69.70;;;;;;5056197;28;20178;-73
2021/05/23 08:53:44;;;;;;;3.88;1.70;;;21.10;68.80;;;;;;5053114;28;20850;-72
2021/05/23 08:56:10;;;;;;;1.38;1.38;;;21.20;69.40;;;;;;5053137;28;20947;-73
2021/05/23 08:58:36;;;;;;;2.72;1.58;;;21.30;69.90;;;;;;5051793;28;20214;-73
2021/05/23 09:01:01;;;;;;;1.88;1.73;;;21.40;70.00;;;;;;5054338;28;20262;-73
2021/05/23 09:03:27;;;;;;;1.83;1.70;;;21.60;69.90;;;;;;5047610;28;20180;-73
2021/05/23 09:06:12;;;;;;;3.83;1.42;;;21.70;69.40;;;;;;5047808;28;20874;-73
2021/05/23 09:08:38;;;;;;;1.75;1.75;;;21.90;69.50;;;;;;5049700;28;20675;-73
2021/05/23 09:11:06;;;;;;;1.33;1.33;;;22.10;69.30;;;;;;5048373;28;20184;-72
2021/05/23 09:13:37;;;;;;;1.75;1.65;;;22.30;68.80;;;;;;5048540;28;20191;-71
2021/05/23 09:16:11;;;;;;;4.63;1.80;;;22.50;67.90;;;;;;5048378;28;20200;-71
2021/05/23 09:18:48;;;;;;;1.75;1.70;;;22.60;67.50;;;;;;5051681;28;20775;-72
2021/05/23 09:21:21;;;;;;;1.70;1.60;;;22.80;65.50;;;;;;5052381;28;20194;-71
2021/05/23 09:23:58;;;;;;;1.52;1.33;;;22.90;66.20;;;;;;5048241;28;20332;-71
2021/05/23 09:26:27;;;;;;;2.17;2.08;;;23.00;66.30;;;;;;5047913;28;20199;-72
2021/05/23 09:28:54;;;;;;;1.92;1.83;;;23.20;65.50;;;;;;5047405;28;20282;-71
2021/05/23 09:31:24;;;;;;;3.13;1.65;;;23.30;66.10;;;;;;5049045;28;20195;-71
2021/05/23 09:33:52;;;;;;;6.20;2.55;;;23.40;66.40;;;;;;5049978;28;20941;-71
2021/05/23 09:36:19;;;;;;;1.70;1.63;;;23.50;64.70;;;;;;5047625;28;20194;-72
2021/05/23 09:39:04;;;;;;;2.28;1.92;;;23.60;64.50;;;;;;5047423;28;20235;-71
2021/05/23 09:41:41;;;;;;;1.73;1.63;;;23.70;63.70;;;;;;5046160;28;20214;-71
2021/05/23 09:44:25;;;;;;;1.58;1.50;;;23.90;64.50;;;;;;5053210;28;20183;-71
2021/05/23 09:46:55;;;;;;;1.80;1.70;;;24.00;64.60;;;;;;5046878;28;20179;-69
2021/05/23 09:49:22;;;;;;;1.92;1.83;;;24.20;64.20;;;;;;5051446;28;20183;-70
2021/05/23 09:52:00;;;;;;;2.53;1.88;;;24.30;63.80;;;;;;5054638;28;20194;-71
2021/05/23 09:54:29;;;;;;;2.90;2.05;;;24.50;64.20;;;;;;5041787;28;20174;-70
2021/05/23 09:56:55;;;;;;;3.58;1.88;;;24.80;64.40;;;;;;5041996;28;20333;-72
2021/05/23 09:59:23;;;;;;;2.60;2.13;;;25.00;63.20;;;;;;5046964;28;20183;-72
2021/05/23 10:01:50;;;;;;;2.40;1.67;;;25.30;63.30;;;;;;5041810;28;20172;-73
2021/05/23 10:04:20;;;;;;;2.25;1.70;;;25.60;62.40;;;;;;5049293;28;20191;-73
2021/05/23 10:06:57;;;;;;;5.40;1.60;;;25.90;62.80;;;;;;5047674;28;20169;-73
2021/05/23 10:09:24;;;;;;;1.58;1.48;;;26.30;61.30;;;;;;5047598;28;20725;-72
2021/05/23 10:11:50;;;;;;;1.80;1.70;;;26.70;60.20;;;;;;5045170;28;20542;-73
2021/05/23 10:14:16;;;;;;;1.52;1.48;;;27.10;58.20;;;;;;5050461;28;20198;-73
2021/05/23 10:16:42;;;;;;;1.33;1.33;;;27.50;58.20;;;;;;5048226;28;20925;-73
2021/05/23 10:19:09;;;;;;;1.55;1.45;;;27.90;57.20;;;;;;5045368;28;20194;-72
2021/05/23 10:21:35;;;;;;;1.63;1.30;;;28.20;57.20;;;;;;5044828;28;20180;-73
2021/05/23 10:24:03;;;;;;;1.63;1.52;;;28.60;55.70;;;;;;5049655;28;20171;-73
2021/05/23 10:26:31;;;;;;;1.90;1.80;;;29.10;53.90;;;;;;5046412;28;20803;-72
2021/05/23 10:28:59;;;;;;;1.70;1.55;;;29.40;55.10;;;;;;5044853;28;20180;-73
2021/05/23 10:31:33;;;;;;;1.25;1.25;;;29.80;55.20;;;;;;5039167;28;20883;-73
2021/05/23 10:33:58;;;;;;;1.35;1.25;;;30.30;55.20;;;;;;5049558;28;20668;-72
2021/05/23 10:36:39;;;;;;;1.83;1.75;;;31.00;53.70;;;;;;5045534;28;20175;-71
2021/05/23 10:39:11;;;;;;;1.58;1.48;;;31.50;50.90;;;;;;5043662;28;20709;-72
2021/05/23 10:41:37;;;;;;;1.48;1.20;;;32.10;51.20;;;;;;5045911;28;20249;-72
2021/05/23 10:44:05;;;;;;;3.33;1.20;;;32.70;51.90;;;;;;5049004;28;20218;-72
2021/05/23 10:46:42;;;;;;;1.50;1.50;;;33.50;51.70;;;;;;5042844;28;20635;-73
2021/05/23 10:49:07;;;;;;;3.97;1.52;;;34.00;49.40;;;;;;5045044;28;20195;-73
2021/05/23 10:51:33;;;;;;;1.65;1.33;;;34.30;49.90;;;;;;5043492;28;20187;-73
2021/05/23 10:53:59;;;;;;;2.53;1.50;;;34.30;50.10;;;;;;5047003;28;20215;-73
2021/05/23 10:56:45;;;;;;;3.95;1.33;;;34.50;48.50;;;;;;5044861;28;20187;-73
2021/05/23 10:59:12;;;;;;;1.40;1.30;;;34.80;47.30;;;;;;5045731;28;20187;-72
2021/05/23 11:01:46;;;;;;;3.13;1.42;;;35.10;47.70;;;;;;5045301;28;20203;-72
2021/05/23 11:04:21;;;;;;;1.42;1.17;;;35.50;47.50;;;;;;5045593;28;20194;-73
2021/05/23 11:06:48;;;;;;;1.63;1.42;;;36.00;46.60;;;;;;5046881;28;20578;-73
2021/05/23 11:09:28;;;;;;;1.88;0.93;;;36.60;46.30;;;;;;5045981;28;20225;-73
2021/05/23 11:12:06;;;;;;;1.00;1.00;;;37.00;44.60;;;;;;5054622;28;20186;-73
2021/05/23 11:14:32;;;;;;;4.43;1.23;;;37.40;43.10;;;;;;5047074;28;20195;-73
2021/05/23 11:16:58;;;;;;;1.70;1.00;;;37.50;44.30;;;;;;5043504;28;20584;-72
2021/05/23 11:19:30;;;;;;;1.35;1.33;;;37.80;45.90;;;;;;5047071;28;20574;-72
2021/05/23 11:21:57;;;;;;;1.20;1.20;;;38.10;45.50;;;;;;5045555;28;20262;-73
2021/05/23 11:24:31;;;;;;;0.90;0.90;;;38.00;45.60;;;;;;5046851;28;20198;-73
2021/05/23 11:27:09;;;;;;;1.42;0.90;;;37.80;46.40;;;;;;5047394;28;20176;-72
2021/05/23 11:29:34;;;;;;;1.25;1.25;;;37.90;44.20;;;;;;5046157;28;20190;-72
2021/05/23 11:32:00;;;;;;;1.00;1.00;;;38.00;43.40;;;;;;5045631;28;20187;-73
2021/05/23 11:34:28;;;;;;;1.13;1.00;;;38.40;43.50;;;;;;5046918;28;20176;-73
2021/05/23 11:36:54;;;;;;;2.25;0.90;;;38.80;43.10;;;;;;5046139;28;20183;-73
2021/05/23 11:39:21;;;;;;;1.50;1.10;;;39.20;43.40;;;;;;5045681;28;20274;-73
2021/05/23 11:41:48;;;;;;;0.98;0.98;;;39.30;44.00;;;;;;5052120;28;20234;-73
2021/05/23 11:44:15;;;;;;;1.92;1.00;;;39.60;45.60;;;;;;5050461;28;20193;-73
2021/05/23 11:46:45;;;;;;;1.02;1.02;;;39.90;43.70;;;;;;5056109;28;20189;-72
2021/05/23 11:49:21;;;;;;;1.05;1.05;;;40.10;45.10;;;;;;5054517;28;20183;-73
2021/05/23 11:51:48;;;;;;;1.00;1.00;;;40.10;42.60;;;;;;5056703;28;20186;-72
2021/05/23 11:54:14;;;;;;;1.13;1.13;;;40.10;44.80;;;;;;5054221;28;20178;-72
2021/05/23 11:56:40;;;;;;;1.40;1.00;;;40.10;42.50;;;;;;5049989;28;20684;-71
2021/05/23 11:59:08;;;;;;;0.98;0.98;;;40.10;44.60;;;;;;5051865;28;20218;-71
2021/05/23 12:01:36;;;;;;;1.42;1.25;;;40.10;43.60;;;;;;5049137;28;20580;-73
2021/05/23 12:04:06;;;;;;;0.70;0.70;;;40.30;43.30;;;;;;5054329;28;20542;-70
2021/05/23 12:06:34;;;;;;;1.00;0.90;;;40.70;43.60;;;;;;5049326;28;20187;-73
2021/05/23 12:09:15;;;;;;;1.20;0.88;;;41.00;44.40;;;;;;5052775;28;20182;-71
2021/05/23 12:11:45;;;;;;;1.40;1.02;;;41.30;43.30;;;;;;5052356;28;20194;-72
2021/05/23 12:14:33;;;;;;;0.93;0.93;;;41.50;44.30;;;;;;5048708;28;20195;-71
2021/05/23 12:17:15;;;;;;;1.95;1.17;;;41.70;42.50;;;;;;5048425;28;20183;-71
2021/05/23 12:19:55;;;;;;;1.00;0.98;;;42.00;43.20;;;;;;5049514;28;20183;-71
2021/05/23 12:22:30;;;;;;;2.67;0.90;;;42.40;41.40;;;;;;5052235;28;20549;-71
2021/05/23 12:24:57;;;;;;;0.80;0.80;;;42.50;41.90;;;;;;5051967;28;20185;-72
2021/05/23 12:27:23;;;;;;;0.77;0.77;;;42.10;40.80;;;;;;5049144;28;20191;-70
2021/05/23 12:29:49;;;;;;;0.90;0.90;;;41.80;43.00;;;;;;5047873;28;20226;-73
2021/05/23 12:32:15;;;;;;;0.73;0.73;;;41.80;43.70;;;;;;5049508;28;20219;-73
2021/05/23 12:34:44;;;;;;;1.00;0.77;;;42.00;42.70;;;;;;5046775;28;20902;-70
2021/05/23 12:37:10;;;;;;;1.88;0.90;;;42.20;40.70;;;;;;5047638;28;20706;-72
2021/05/23 12:39:35;;;;;;;2.83;0.88;;;42.40;41.40;;;;;;5049051;28;20183;-70
2021/05/23 12:42:04;;;;;;;0.88;0.88;;;42.70;42.50;;;;;;5049134;28;20175;-71
2021/05/23 12:44:31;;;;;;;1.30;0.90;;;42.80;40.70;;;;;;5049128;28;20664;-74
2021/05/23 12:47:09;;;;;;;1.48;0.90;;;42.70;41.00;;;;;;5048461;28;20260;-78
2021/05/23 12:49:36;;;;;;;1.10;1.00;;;42.80;40.30;;;;;;5050387;28;20179;-76
2021/05/23 12:52:06;;;;;;;0.90;0.90;;;42.90;42.20;;;;;;5049191;28;20313;-77
2021/05/23 12:54:32;;;;;;;2.25;0.93;;;42.90;40.90;;;;;;5048041;28;20342;-76
2021/05/23 12:57:04;;;;;;;0.82;0.73;;;43.00;40.60;;;;;;5044176;28;20195;-76